Bro Anna — 9V3609 — position and weather

sailwx.info

Track history (hours):
 
Tides and Currents Weather Stations Pressure Air Temp Water Temp Dewpoint Dewpoint Depression Visibility Wind Speed Wind Dir Waves Ship Positions

Bro Anna

Last reported at 2017-Nov-20 00:02 UTC. Time now 2017-Nov-21 06:20 UTC.
Position N 55°02' E 013°53'.

Length 144 m; draft 8.9 m.

Type: Ship. MMSI: 564066000.

Date/timePositionNaut miles runAvg speedWind from/ knotsBaromVisibWave heightAir tempDewpointWater temp
2017-Nov-20 00:02N 55°02' E 013°53'212.8
2017-Nov-19 23:54N 55°03' E 013°56'512.7
2017-Nov-19 23:29N 55°05' E 014°04'813.2
2017-Nov-19 22:51N 55°11' E 014°14'513.4
2017-Nov-19 22:29N 55°15' E 014°19'613.7
2017-Nov-19 22:00N 55°20' E 014°26'713.6
2017-Nov-19 21:30N 55°25' E 014°34'913.3
2017-Nov-19 20:51N 55°30' E 014°47'513.1
2017-Nov-19 20:29N 55°32' E 014°54'613.2
2017-Nov-19 20:00N 55°35' E 015°04'713.3
2017-Nov-19 19:30N 55°39' E 015°14'713.3
2017-Nov-19 19:00N 55°42' E 015°25'713.4
2017-Nov-19 18:30N 55°45' E 015°35'713.5
2017-Nov-19 18:00N 55°49' E 015°45'713.5
2017-Nov-19 17:30N 55°52' E 015°56'713.5
2017-Nov-19 17:00N 55°55' E 016°06'713.0
2017-Nov-19 16:30N 55°59' E 016°16'612.4
2017-Nov-19 16:00N 56°01' E 016°26'612.5
2017-Nov-19 15:30N 56°05' E 016°36'612.3
2017-Nov-19 15:00N 56°08' E 016°44'612.3
2017-Nov-19 14:30N 56°12' E 016°53'612.2
2017-Nov-19 14:00N 56°16' E 017°02'  
2017-Nov-15 01:02N 56°07' E 016°54'112.3
2017-Nov-15 00:56N 56°06' E 016°52'512.2
2017-Nov-15 00:30N 56°03' E 016°45'612.2
2017-Nov-15 00:00N 55°59' E 016°36'612.0
2017-Nov-14 23:30N 55°56' E 016°26'612.0
2017-Nov-14 23:00N 55°54' E 016°16'612.2
2017-Nov-14 22:30N 55°51' E 016°07'612.1
2017-Nov-14 22:00N 55°48' E 015°58'612.1
2017-Nov-14 21:30N 55°44' E 015°49'612.2
2017-Nov-14 21:00N 55°41' E 015°40'612.5
2017-Nov-14 20:30N 55°38' E 015°31'612.6
2017-Nov-14 20:00N 55°36' E 015°20'612.7
2017-Nov-14 19:30N 55°33' E 015°10'712.8
2017-Nov-14 18:58N 55°30' E 014°59'612.6
2017-Nov-14 18:30N 55°27' E 014°50'612.4
2017-Nov-14 18:00N 55°24' E 014°41'612.1
2017-Nov-14 17:30N 55°19' E 014°34'612.4
2017-Nov-14 17:00N 55°14' E 014°27'612.5
2017-Nov-14 16:30N 55°09' E 014°20'612.7
2017-Nov-14 16:00N 55°05' E 014°13'712.5
2017-Nov-14 15:26N 54°60' E 014°04'613.0
2017-Nov-14 14:58N 54°58' E 013°54'712.7
2017-Nov-14 14:26N 54°55' E 013°43'3712.6
2017-Nov-14 11:28N 54°44' E 012°41'912.8
2017-Nov-14 10:46N 54°39' E 012°28'312.7
2017-Nov-14 10:30N 54°37' E 012°23'712.0
2017-Nov-14 09:54N 54°31' E 012°16'512.6
2017-Nov-14 09:31N 54°26' E 012°13'1511.8
2017-Nov-14 08:12N 54°25' E 011°46'312.6
2017-Nov-14 07:57N 54°26' E 011°41'612.7
2017-Nov-14 07:30N 54°29' E 011°33'612.7
2017-Nov-14 07:00N 54°31' E 011°23'612.2
2017-Nov-14 06:31N 54°34' E 011°14'611.7
2017-Nov-14 06:01N 54°35' E 011°04'612.8
2017-Nov-14 05:31N 54°35' E 010°53'612.4
2017-Nov-14 05:00N 54°34' E 010°42'612.3
2017-Nov-14 04:30N 54°33' E 010°32'612.4
2017-Nov-14 03:59N 54°30' E 010°22'16 6.3
2017-Nov-14 01:27N 54°21' E 009°59'4 8.1
2017-Nov-14 00:59N 54°21' E 009°53'3 7.2
2017-Nov-14 00:31N 54°22' E 009°47'4 8.2
2017-Nov-14 00:00N 54°18' E 009°43'4 7.8
2017-Nov-13 23:31N 54°16' E 009°38'2 3.6
2017-Nov-13 23:00N 54°14' E 009°36'4 7.4
2017-Nov-13 22:30N 54°12' E 009°32'4 8.0
2017-Nov-13 22:01N 54°10' E 009°26'  
2017-Nov-10 07:00N 53°28' E 003°44'713.7
2017-Nov-10 06:29N 53°22' E 003°39'713.8
2017-Nov-10 06:00N 53°16' E 003°35'  
Track history (hours):
 
Tides and Currents Weather Stations Pressure Air Temp Water Temp Dewpoint Dewpoint Depression Visibility Wind Speed Wind Dir Waves Ship Positions

Bro Anna

Last reported at 2017-Nov-20 00:02 UTC. Time now 2017-Nov-21 06:20 UTC.
Position N 55°02' E 013°53'.

Length 144 m; draft 8.9 m.

Type: Ship. MMSI: 564066000.

Date/timePositionNaut miles runAvg speedWind from/ knotsBaromVisibWave heightAir tempDewpointWater temp
2017-Nov-20 00:02N 55°02' E 013°53'212.8
2017-Nov-19 23:54N 55°03' E 013°56'512.7
2017-Nov-19 23:29N 55°05' E 014°04'813.2
2017-Nov-19 22:51N 55°11' E 014°14'513.4
2017-Nov-19 22:29N 55°15' E 014°19'613.7
2017-Nov-19 22:00N 55°20' E 014°26'713.6
2017-Nov-19 21:30N 55°25' E 014°34'913.3
2017-Nov-19 20:51N 55°30' E 014°47'513.1
2017-Nov-19 20:29N 55°32' E 014°54'613.2
2017-Nov-19 20:00N 55°35' E 015°04'713.3
2017-Nov-19 19:30N 55°39' E 015°14'713.3
2017-Nov-19 19:00N 55°42' E 015°25'713.4
2017-Nov-19 18:30N 55°45' E 015°35'713.5
2017-Nov-19 18:00N 55°49' E 015°45'713.5
2017-Nov-19 17:30N 55°52' E 015°56'713.5
2017-Nov-19 17:00N 55°55' E 016°06'713.0
2017-Nov-19 16:30N 55°59' E 016°16'612.4
2017-Nov-19 16:00N 56°01' E 016°26'612.5
2017-Nov-19 15:30N 56°05' E 016°36'612.3
2017-Nov-19 15:00N 56°08' E 016°44'612.3
2017-Nov-19 14:30N 56°12' E 016°53'612.2
2017-Nov-19 14:00N 56°16' E 017°02'  
2017-Nov-15 01:02N 56°07' E 016°54'112.3
2017-Nov-15 00:56N 56°06' E 016°52'512.2
2017-Nov-15 00:30N 56°03' E 016°45'612.2
2017-Nov-15 00:00N 55°59' E 016°36'612.0
2017-Nov-14 23:30N 55°56' E 016°26'612.0
2017-Nov-14 23:00N 55°54' E 016°16'612.2
2017-Nov-14 22:30N 55°51' E 016°07'612.1
2017-Nov-14 22:00N 55°48' E 015°58'612.1
2017-Nov-14 21:30N 55°44' E 015°49'612.2
2017-Nov-14 21:00N 55°41' E 015°40'612.5
2017-Nov-14 20:30N 55°38' E 015°31'612.6
2017-Nov-14 20:00N 55°36' E 015°20'612.7
2017-Nov-14 19:30N 55°33' E 015°10'712.8
2017-Nov-14 18:58N 55°30' E 014°59'612.6
2017-Nov-14 18:30N 55°27' E 014°50'612.4
2017-Nov-14 18:00N 55°24' E 014°41'612.1
2017-Nov-14 17:30N 55°19' E 014°34'612.4
2017-Nov-14 17:00N 55°14' E 014°27'612.5
2017-Nov-14 16:30N 55°09' E 014°20'612.7
2017-Nov-14 16:00N 55°05' E 014°13'712.5
2017-Nov-14 15:26N 54°60' E 014°04'613.0
2017-Nov-14 14:58N 54°58' E 013°54'712.7
2017-Nov-14 14:26N 54°55' E 013°43'3712.6
2017-Nov-14 11:28N 54°44' E 012°41'912.8
2017-Nov-14 10:46N 54°39' E 012°28'312.7
2017-Nov-14 10:30N 54°37' E 012°23'712.0
2017-Nov-14 09:54N 54°31' E 012°16'512.6
2017-Nov-14 09:31N 54°26' E 012°13'1511.8
2017-Nov-14 08:12N 54°25' E 011°46'312.6
2017-Nov-14 07:57N 54°26' E 011°41'612.7
2017-Nov-14 07:30N 54°29' E 011°33'612.7
2017-Nov-14 07:00N 54°31' E 011°23'612.2
2017-Nov-14 06:31N 54°34' E 011°14'611.7
2017-Nov-14 06:01N 54°35' E 011°04'612.8
2017-Nov-14 05:31N 54°35' E 010°53'612.4
2017-Nov-14 05:00N 54°34' E 010°42'612.3
2017-Nov-14 04:30N 54°33' E 010°32'612.4
2017-Nov-14 03:59N 54°30' E 010°22'16 6.3
2017-Nov-14 01:27N 54°21' E 009°59'4 8.1
2017-Nov-14 00:59N 54°21' E 009°53'3 7.2
2017-Nov-14 00:31N 54°22' E 009°47'4 8.2
2017-Nov-14 00:00N 54°18' E 009°43'4 7.8
2017-Nov-13 23:31N 54°16' E 009°38'2 3.6
2017-Nov-13 23:00N 54°14' E 009°36'4 7.4
2017-Nov-13 22:30N 54°12' E 009°32'4 8.0
2017-Nov-13 22:01N 54°10' E 009°26'  
2017-Nov-10 07:00N 53°28' E 003°44'713.7
2017-Nov-10 06:29N 53°22' E 003°39'713.8
2017-Nov-10 06:00N 53°16' E 003°35'  

Dump ship's entire track history